Aérodrome :
LOGIN :

S'inscrire | Disclaimer

   EN    FR    IT 

 










Légende :    VFR   VFR Marginal   IFR   IFR Intensif   IFR Très Intensif
Visi : 
Plafond : 
>= 8 km
>= 3000ft
5 à 8 km
1000 à 3000 ft
1500m à 5 km
500 à 1000 ft
800 à 1500m
200 à 500 ft
< 800m
< 200 ft
Symboles :   Orages  Brouillard  Fortes neiges  Fortes précipitations  Vent > 20 kt
SIGMETs :   Divers  Orages  Givrage  Turbulence  Onde Orograph.  Cendres Volcan.






- Altitude de l'aérodrome : 913 ft


LFSX - Luxeuil

DERNIER METAR :
  • 230330Z AUTO 09004KT 2900 0600 R11/0750D BCFG VV/// 07/07 Q1015

METARs EXPIRÉS :
  • 230300Z AUTO VRB02KT 0650 0600 R11/0750N FG VV/// 08/08 Q1016
  • 230230Z AUTO 31003KT 290V350 0350 R11/0400N FG VV/// 08/08 Q1016
  • 230200Z AUTO VRB02KT 0300 0250 R11/0300N FG VV/// 08/08 Q1016
  • 230130Z AUTO 34001KT 0350 0300 R11/0400N FG VV/// 08/08 Q1016
  • 230100Z AUTO VRB01KT 0600 R11/0700D FG VV/// 08/08 Q1016

TAF TAF LFSX
Valide du 22 à 21h jusqu'au 23 à 21h UTC


222000Z 2221/2321 VRB03KT CAVOK
BECMG 2221/2223 3000 BR
TEMPO 2222/2307 0300 FG SCT003
BECMG 2307/2309 CAVOK



MET'MAP, la Météo Aéronautique d'un coup d'oeil ! - Copyright ORBIFLY Décembre 2007 - Disclaimer

ORBIFLY MET'MAP TEAM :

Programmation & Développement : Alexandra Zaïnal
Conception & Développement : Baudouin d'Aumeries
Co-Programmation & Développement : Marc-Olivier Méhu
Soutien technique & logistique : Manuel Goepfert

Contact : metmap@orbifly.com




SOURCES & CREDITS :

   NOAA